createdAt,value
2024-04-25T00:00:02.953Z,7.38
2024-04-25T00:02:33.445Z,6.70
2024-04-25T00:05:04.024Z,3.65
2024-04-25T00:07:34.494Z,3.20
2024-04-25T00:10:04.890Z,5.63
2024-04-25T00:12:37.896Z,5.13
2024-04-25T00:15:08.898Z,6.20
2024-04-25T00:17:39.233Z,3.50
2024-04-25T00:20:10.780Z,2.85
2024-04-25T00:22:41.063Z,5.45
2024-04-25T00:25:11.489Z,4.15
2024-04-25T00:27:44.411Z,4.75
2024-04-25T00:30:14.784Z,5.07
2024-04-25T00:32:45.394Z,5.03
2024-04-25T00:35:15.846Z,5.20
2024-04-25T00:37:46.287Z,7.05
2024-04-25T00:40:16.721Z,7.93
2024-04-25T00:42:49.642Z,6.65
2024-04-25T00:45:20.298Z,4.60
2024-04-25T00:47:54.323Z,8.10
2024-04-25T00:50:26.875Z,4.82
2024-04-25T00:53:01.036Z,7.55
2024-04-25T00:55:32.024Z,6.40
2024-04-25T00:58:09.299Z,5.45
2024-04-25T01:00:43.397Z,6.72
2024-04-25T01:03:14.798Z,4.88
2024-04-25T01:05:46.320Z,7.28
2024-04-25T01:08:16.863Z,7.88
2024-04-25T01:10:48.837Z,3.42
2024-04-25T01:13:22.174Z,6.03
2024-04-25T01:15:52.551Z,4.53
2024-04-25T01:18:23.567Z,5.38
2024-04-25T01:20:54.457Z,7.80
2024-04-25T01:23:30.194Z,6.45
2024-04-25T01:26:03.953Z,8.00
2024-04-25T01:28:35.812Z,6.28
2024-04-25T01:31:08.340Z,8.13
2024-04-25T01:33:43.684Z,7.32
2024-04-25T01:36:14.448Z,6.35
2024-04-25T01:38:44.939Z,6.88
2024-04-25T01:41:17.891Z,8.35
2024-04-25T01:43:48.244Z,7.07
2024-04-25T01:46:18.536Z,9.00
2024-04-25T01:48:48.918Z,10.27
2024-04-25T01:51:19.536Z,10.95
2024-04-25T01:53:50.171Z,6.43
2024-04-25T01:56:23.260Z,10.60
2024-04-25T01:58:54.642Z,7.20
2024-04-25T02:01:27.652Z,7.63
2024-04-25T02:03:58.537Z,11.38
2024-04-25T02:06:28.965Z,11.85
2024-04-25T02:08:59.261Z,10.63
2024-04-25T02:11:33.880Z,8.93
2024-04-25T02:14:04.439Z,8.13
2024-04-25T02:16:34.878Z,8.40
2024-04-25T02:19:05.321Z,8.43
2024-04-25T02:21:51.497Z,8.80
2024-04-25T02:24:37.931Z,9.48
2024-04-25T02:27:11.066Z,9.93
2024-04-25T02:29:41.438Z,10.88
2024-04-25T02:32:11.822Z,10.48
2024-04-25T02:34:42.230Z,10.18
2024-04-25T02:37:12.567Z,12.07
2024-04-25T02:39:45.933Z,9.10
2024-04-25T02:42:19.057Z,11.13
2024-04-25T02:44:46.920Z,13.82
2024-04-25T02:47:17.412Z,8.82
2024-04-25T02:49:45.333Z,11.10
2024-04-25T02:52:15.621Z,11.15
2024-04-25T02:54:43.340Z,12.95
2024-04-25T02:57:14.129Z,13.00
2024-04-25T02:59:44.453Z,12.57
2024-04-25T03:02:14.822Z,10.90
2024-04-25T03:04:42.695Z,11.02
2024-04-25T03:07:13.343Z,13.63
2024-04-25T03:09:41.311Z,10.68
2024-04-25T03:12:11.852Z,10.20
2024-04-25T03:14:39.639Z,9.85
2024-04-25T03:17:12.945Z,12.90
2024-04-25T03:19:40.629Z,9.10
2024-04-25T03:22:10.930Z,12.70
2024-04-25T03:24:39.112Z,10.93
2024-04-25T03:27:09.719Z,12.90
2024-04-25T03:29:37.612Z,11.40
2024-04-25T03:32:08.490Z,8.63
2024-04-25T03:34:41.613Z,12.05
2024-04-25T03:37:12.330Z,7.63
2024-04-25T03:39:45.717Z,10.70
2024-04-25T03:42:16.071Z,10.80
2024-04-25T03:44:46.394Z,9.27
2024-04-25T03:47:16.809Z,9.90
2024-04-25T03:49:49.877Z,10.07
2024-04-25T03:52:20.521Z,8.95
2024-04-25T03:54:50.856Z,10.07
2024-04-25T03:57:21.201Z,10.00
2024-04-25T03:59:51.512Z,10.20
2024-04-25T04:02:21.885Z,7.75
2024-04-25T04:04:55.220Z,6.90
2024-04-25T04:07:25.570Z,9.13
2024-04-25T04:09:55.903Z,8.43
2024-04-25T04:12:26.735Z,7.03
2024-04-25T04:14:57.113Z,7.85
2024-04-25T04:17:27.497Z,7.80
2024-04-25T04:20:00.818Z,10.95
2024-04-25T04:22:31.506Z,10.80
2024-04-25T04:25:01.857Z,7.50
2024-04-25T04:27:32.206Z,9.02
2024-04-25T04:30:02.587Z,11.20
2024-04-25T04:32:33.165Z,8.38
2024-04-25T04:35:06.378Z,9.65
2024-04-25T04:37:36.795Z,8.10
2024-04-25T04:40:07.806Z,8.27
2024-04-25T04:42:41.599Z,8.50
2024-04-25T04:45:12.036Z,6.80
2024-04-25T04:47:42.667Z,10.60
2024-04-25T04:50:19.528Z,8.77
2024-04-25T04:52:50.115Z,9.45
2024-04-25T04:55:20.508Z,9.88
2024-04-25T04:57:50.784Z,11.07
2024-04-25T05:00:21.437Z,9.13
2024-04-25T05:02:52.320Z,9.85
2024-04-25T05:05:25.369Z,11.65
2024-04-25T05:07:58.766Z,9.70
2024-04-25T05:10:30.619Z,11.23
2024-04-25T05:13:01.015Z,9.75
2024-04-25T05:15:31.944Z,10.35
2024-04-25T05:18:02.568Z,13.95
2024-04-25T05:20:35.954Z,10.23
2024-04-25T05:23:06.649Z,12.18
2024-04-25T05:25:36.994Z,13.20
2024-04-25T05:28:07.718Z,10.35
2024-04-25T05:30:38.336Z,11.38
2024-04-25T05:33:09.098Z,10.73
2024-04-25T05:35:42.206Z,10.60
2024-04-25T05:38:12.798Z,11.57
2024-04-25T05:40:43.155Z,8.10
2024-04-25T05:43:14.346Z,13.85
2024-04-25T05:45:44.914Z,8.68
2024-04-25T05:48:15.446Z,13.30
2024-04-25T05:50:48.612Z,12.50
2024-04-25T05:53:19.448Z,11.23
2024-04-25T05:55:49.893Z,14.88
2024-04-25T05:58:20.245Z,12.13
2024-04-25T06:00:50.952Z,12.85
2024-04-25T06:03:21.299Z,11.95
2024-04-25T06:05:54.508Z,10.73
2024-04-25T06:08:24.842Z,10.93
2024-04-25T06:10:55.317Z,13.13
2024-04-25T06:13:25.718Z,13.70
2024-04-25T06:15:56.044Z,16.00
2024-04-25T06:18:26.489Z,8.23
2024-04-25T06:20:59.910Z,14.40
2024-04-25T06:23:31.376Z,10.60
2024-04-25T06:26:01.879Z,12.40
2024-04-25T06:28:32.225Z,9.13
2024-04-25T06:31:03.106Z,7.47
2024-04-25T06:33:35.364Z,9.60
2024-04-25T06:36:08.954Z,9.10
2024-04-25T06:38:39.403Z,11.98
2024-04-25T06:41:09.849Z,13.07
2024-04-25T06:43:40.206Z,12.68
2024-04-25T06:46:13.096Z,10.50
2024-04-25T06:48:43.628Z,10.55
2024-04-25T06:51:19.676Z,12.80
2024-04-25T06:53:50.067Z,14.73
2024-04-25T06:56:20.461Z,9.02
2024-04-25T06:58:50.748Z,11.10
2024-04-25T07:01:21.080Z,10.05
2024-04-25T07:03:52.636Z,10.23
2024-04-25T07:06:25.615Z,14.80
2024-04-25T07:09:01.291Z,9.88
2024-04-25T07:11:31.980Z,8.82
2024-04-25T07:14:02.497Z,12.40
2024-04-25T07:16:33.875Z,9.43
2024-04-25T07:19:04.197Z,10.45
2024-04-25T07:21:37.287Z,9.25
2024-04-25T07:24:07.926Z,10.35
2024-04-25T07:26:38.327Z,9.55
2024-04-25T07:29:08.843Z,12.32
2024-04-25T07:31:39.260Z,10.75
2024-04-25T07:34:09.546Z,8.98
2024-04-25T07:36:42.566Z,10.10
2024-04-25T07:39:15.116Z,7.82
2024-04-25T07:41:47.053Z,9.00
2024-04-25T07:44:17.609Z,7.28
2024-04-25T07:46:48.366Z,9.90
2024-04-25T07:49:18.983Z,7.45
2024-04-25T07:51:52.142Z,10.98
2024-04-25T07:54:22.528Z,8.80
2024-04-25T07:56:52.940Z,8.27
2024-04-25T07:59:26.905Z,9.82
2024-04-25T08:01:57.486Z,10.13
2024-04-25T08:04:28.894Z,11.07
2024-04-25T08:07:02.023Z,10.45
2024-04-25T08:09:36.104Z,8.75
2024-04-25T08:12:06.804Z,11.32
2024-04-25T08:14:39.884Z,10.73
2024-04-25T08:17:10.264Z,9.80
2024-04-25T08:19:40.561Z,11.07
2024-04-25T08:22:14.313Z,9.57
2024-04-25T08:24:45.492Z,11.43
2024-04-25T08:27:15.858Z,10.73
2024-04-25T08:29:46.348Z,8.80
2024-04-25T08:32:24.200Z,11.27
2024-04-25T08:34:56.519Z,7.57
2024-04-25T08:37:30.172Z,6.10
2024-04-25T08:40:00.609Z,6.10
2024-04-25T08:42:31.050Z,9.43
2024-04-25T08:45:01.729Z,6.50
2024-04-25T08:47:30.815Z,10.35
2024-04-25T08:50:04.012Z,6.80
2024-04-25T08:52:37.836Z,7.20
2024-04-25T08:55:12.199Z,8.00
2024-04-25T08:57:42.734Z,7.28
2024-04-25T09:00:13.910Z,8.23
2024-04-25T09:02:47.986Z,7.07
2024-04-25T09:05:24.986Z,7.57
2024-04-25T09:07:58.602Z,7.78
2024-04-25T09:10:28.938Z,8.98
2024-04-25T09:12:59.552Z,5.95
2024-04-25T09:15:30.010Z,8.98
2024-04-25T09:18:02.507Z,7.72
2024-04-25T09:20:35.716Z,6.03
2024-04-25T09:23:09.091Z,8.45
2024-04-25T09:25:40.699Z,9.70
2024-04-25T09:28:12.951Z,8.15
2024-04-25T09:30:43.298Z,9.68
2024-04-25T09:33:13.760Z,5.40
2024-04-25T09:35:46.385Z,7.05
2024-04-25T09:38:19.623Z,9.23
2024-04-25T09:40:51.738Z,9.35
2024-04-25T09:43:24.948Z,7.05
2024-04-25T09:45:57.967Z,7.20
2024-04-25T09:48:35.965Z,7.57
2024-04-25T09:51:15.243Z,8.82
2024-04-25T09:53:58.175Z,7.18
2024-04-25T09:56:42.562Z,5.32
2024-04-25T10:01:48.036Z,7.25
2024-04-25T10:04:19.374Z,7.28
2024-04-25T10:06:52.296Z,7.13
2024-04-25T10:09:25.517Z,7.70
2024-04-25T10:11:55.884Z,8.02
2024-04-25T10:14:31.326Z,5.80
2024-04-25T10:17:04.042Z,9.32
2024-04-25T10:19:40.358Z,8.52
2024-04-25T10:22:10.680Z,9.73
2024-04-25T10:24:49.936Z,9.05
2024-04-25T10:27:21.774Z,8.27
2024-04-25T10:29:55.826Z,6.10
2024-04-25T10:32:27.864Z,4.55
2024-04-25T10:34:59.967Z,5.90
2024-04-25T10:37:32.063Z,5.60
2024-04-25T10:40:05.114Z,6.28
2024-04-25T10:42:35.587Z,5.03
2024-04-25T10:45:09.359Z,7.30
2024-04-25T10:47:40.443Z,7.07
2024-04-25T10:50:13.584Z,5.70
2024-04-25T10:52:46.408Z,6.13
2024-04-25T10:55:19.572Z,4.88
2024-04-25T10:57:49.822Z,7.00
2024-04-25T11:00:20.163Z,5.00
2024-04-25T11:02:56.423Z,6.60
2024-04-25T11:05:27.405Z,3.72
2024-04-25T11:07:59.671Z,8.10
2024-04-25T11:10:35.550Z,4.65
2024-04-25T11:13:08.962Z,7.88
2024-04-25T11:15:44.072Z,6.05
2024-04-25T11:18:19.894Z,7.40
2024-04-25T11:20:55.835Z,8.48
2024-04-25T11:23:26.804Z,5.47
2024-04-25T11:26:02.502Z,6.32
2024-04-25T11:28:33.106Z,8.63
2024-04-25T11:31:06.540Z,6.28
2024-04-25T11:33:41.579Z,7.45
2024-04-25T11:36:27.013Z,8.60
2024-04-25T11:38:59.618Z,8.40
2024-04-25T11:41:32.760Z,7.18
2024-04-25T11:44:03.677Z,9.13
2024-04-25T11:46:34.392Z,8.07
2024-04-25T11:49:10.450Z,8.63
2024-04-25T11:51:42.489Z,9.90
2024-04-25T11:54:15.948Z,6.90
2024-04-25T11:56:49.886Z,7.40
2024-04-25T11:59:20.206Z,7.45
2024-04-25T12:01:54.381Z,8.88
2024-04-25T12:04:25.304Z,8.55
2024-04-25T12:06:56.303Z,6.82
2024-04-25T12:09:27.553Z,7.95
2024-04-25T12:12:04.015Z,7.97
2024-04-25T12:14:38.192Z,8.77
2024-04-25T12:17:09.639Z,8.43
2024-04-25T12:19:39.968Z,9.10
2024-04-25T12:22:10.258Z,7.05
2024-04-25T12:24:40.999Z,7.75
2024-04-25T12:27:19.231Z,5.25
2024-04-25T12:29:50.651Z,5.97
2024-04-25T12:32:21.012Z,6.40
2024-04-25T12:34:52.784Z,8.70
2024-04-25T12:37:23.024Z,12.43
2024-04-25T12:39:53.363Z,8.10
2024-04-25T12:42:27.433Z,8.63
2024-04-25T12:44:57.993Z,7.28
2024-04-25T12:47:28.653Z,7.00
2024-04-25T12:50:00.894Z,7.70
2024-04-25T12:52:32.713Z,8.68
2024-04-25T12:55:04.243Z,11.38
2024-04-25T12:57:37.281Z,8.52
2024-04-25T13:00:08.250Z,12.43
2024-04-25T13:02:38.755Z,8.02
2024-04-25T13:05:09.182Z,8.90
2024-04-25T13:07:39.430Z,10.43
2024-04-25T13:10:10.272Z,6.70
2024-04-25T13:12:43.572Z,8.57
2024-04-25T13:15:14.712Z,11.23
2024-04-25T13:17:45.182Z,11.60
2024-04-25T13:20:17.188Z,10.00
2024-04-25T13:22:47.579Z,8.73
2024-04-25T13:25:18.119Z,11.88
2024-04-25T13:27:51.095Z,8.43
2024-04-25T13:30:21.347Z,8.25
2024-04-25T13:32:52.849Z,8.10
2024-04-25T13:35:23.442Z,7.57
2024-04-25T13:37:58.770Z,9.70
2024-04-25T13:40:30.612Z,8.85
2024-04-25T13:43:15.137Z,9.98
2024-04-25T13:45:45.414Z,6.03
2024-04-25T13:48:15.963Z,7.88
2024-04-25T13:50:47.112Z,8.02
2024-04-25T13:53:20.860Z,7.88
2024-04-25T13:55:51.631Z,10.88
2024-04-25T13:58:24.923Z,10.63
2024-04-25T14:00:55.805Z,8.32
2024-04-25T14:03:27.264Z,19.00
2024-04-25T14:05:58.883Z,9.18
2024-04-25T14:08:29.267Z,8.00
2024-04-25T14:11:00.374Z,8.30
2024-04-25T14:13:33.538Z,7.50
2024-04-25T14:16:12.713Z,10.80
2024-04-25T14:18:45.950Z,9.32
2024-04-25T14:21:19.789Z,8.35
2024-04-25T14:23:47.580Z,8.82
2024-04-25T14:26:33.982Z,7.72
2024-04-25T14:29:07.324Z,10.60
2024-04-25T14:31:37.632Z,8.02
2024-04-25T14:34:09.301Z,6.35
2024-04-25T14:36:40.921Z,6.22
2024-04-25T14:39:11.371Z,8.05
2024-04-25T14:41:41.835Z,8.43
2024-04-25T14:44:14.939Z,9.02
2024-04-25T14:46:45.552Z,5.75
2024-04-25T14:49:15.907Z,6.10
2024-04-25T14:51:46.224Z,7.88
2024-04-25T14:54:16.545Z,7.10
2024-04-25T14:56:46.990Z,8.82
2024-04-25T14:59:20.780Z,8.27
2024-04-25T15:01:53.958Z,9.30
2024-04-25T15:04:24.263Z,6.45
2024-04-25T15:06:54.769Z,7.78
2024-04-25T15:09:25.025Z,8.90
2024-04-25T15:12:06.936Z,8.18
2024-04-25T15:14:42.922Z,6.50
2024-04-25T15:17:13.514Z,9.82
2024-04-25T15:19:45.712Z,8.32
2024-04-25T15:22:16.278Z,10.75
2024-04-25T15:24:46.695Z,8.43
2024-04-25T15:27:17.613Z,8.95
2024-04-25T15:29:51.967Z,8.63
2024-04-25T15:32:22.370Z,8.90
2024-04-25T15:34:52.735Z,10.05
2024-04-25T15:37:23.484Z,8.93
2024-04-25T15:39:55.938Z,8.75
2024-04-25T15:42:26.302Z,9.05
2024-04-25T15:44:59.317Z,9.88
2024-04-25T15:47:29.905Z,10.40
2024-04-25T15:50:00.403Z,7.55
2024-04-25T15:52:34.484Z,7.30
2024-04-25T15:55:05.020Z,9.00
2024-04-25T15:57:35.413Z,9.30
2024-04-25T16:00:09.616Z,7.47
2024-04-25T16:02:39.923Z,9.93
2024-04-25T16:05:10.661Z,7.95
2024-04-25T16:07:41.062Z,8.40
2024-04-25T16:10:13.880Z,7.65
2024-04-25T16:15:16.996Z,8.65
2024-04-25T16:17:47.407Z,9.65
2024-04-25T16:20:17.779Z,8.38
2024-04-25T16:22:48.178Z,10.30
2024-04-25T16:25:19.663Z,9.80
2024-04-25T16:27:50.000Z,8.77
2024-04-25T16:30:23.051Z,9.95
2024-04-25T16:32:53.775Z,11.23
2024-04-25T16:35:24.671Z,10.10
2024-04-25T16:37:55.064Z,12.10
2024-04-25T16:40:25.360Z,10.90
2024-04-25T16:42:56.190Z,11.10
2024-04-25T16:45:31.595Z,10.57
2024-04-25T16:48:02.079Z,10.32
2024-04-25T16:50:32.456Z,7.32
2024-04-25T16:53:02.824Z,9.43
2024-04-25T16:55:33.372Z,10.07
2024-04-25T16:58:03.859Z,8.50
2024-04-25T17:00:39.013Z,8.25
2024-04-25T17:03:09.711Z,11.27
2024-04-25T17:05:40.139Z,9.75
2024-04-25T17:08:10.837Z,10.88
2024-04-25T17:10:41.164Z,11.85
2024-04-25T17:13:12.884Z,10.35
2024-04-25T17:15:45.879Z,9.63
2024-04-25T17:18:16.478Z,13.05
2024-04-25T17:20:46.950Z,11.50
2024-04-25T17:23:22.011Z,9.13
2024-04-25T17:25:52.701Z,9.20
2024-04-25T17:28:23.022Z,11.23
2024-04-25T17:30:56.017Z,10.90
2024-04-25T17:33:26.482Z,13.52
2024-04-25T17:35:57.102Z,12.95
2024-04-25T17:38:27.482Z,11.35
2024-04-25T17:40:58.122Z,13.85
2024-04-25T17:43:29.872Z,14.90
2024-04-25T17:46:03.779Z,9.88
2024-04-25T17:48:34.548Z,11.25
2024-04-25T17:51:05.385Z,11.55
2024-04-25T17:53:37.568Z,12.25
2024-04-25T17:56:08.470Z,10.35
2024-04-25T17:58:38.799Z,11.25
2024-04-25T18:01:11.760Z,13.63
2024-04-25T18:03:42.274Z,9.95
2024-04-25T18:06:12.823Z,10.52
2024-04-25T18:08:43.270Z,11.25
2024-04-25T18:11:13.630Z,15.85
2024-04-25T18:13:44.555Z,12.30
2024-04-25T18:16:22.240Z,13.68
2024-04-25T18:18:57.791Z,11.18
2024-04-25T18:21:33.660Z,10.82
2024-04-25T18:24:06.294Z,9.88
2024-04-25T18:26:39.452Z,10.18
2024-04-25T18:29:09.712Z,11.88
2024-04-25T18:31:42.651Z,12.65
2024-04-25T18:34:12.980Z,11.95
2024-04-25T18:36:43.241Z,14.57
2024-04-25T18:39:13.531Z,13.30
2024-04-25T18:41:43.114Z,10.27
2024-04-25T18:44:14.161Z,11.40
2024-04-25T18:46:47.116Z,11.80
2024-04-25T18:49:18.345Z,12.25
2024-04-25T18:51:50.486Z,13.07
2024-04-25T18:54:20.782Z,9.98
2024-04-25T18:56:51.148Z,12.30
2024-04-25T18:59:21.693Z,11.90
2024-04-25T19:01:54.727Z,12.88
2024-04-25T19:04:25.554Z,10.25
2024-04-25T19:06:57.844Z,12.18
2024-04-25T19:09:30.535Z,9.75
2024-04-25T19:12:01.250Z,11.95
2024-04-25T19:14:32.450Z,13.25
2024-04-25T19:17:05.534Z,13.38
2024-04-25T19:19:39.519Z,11.10
2024-04-25T19:22:10.153Z,12.65
2024-04-25T19:24:40.468Z,11.63
2024-04-25T19:27:13.427Z,13.60
2024-04-25T19:29:43.964Z,13.82
2024-04-25T19:32:16.941Z,11.38
2024-04-25T19:34:47.292Z,11.20
2024-04-25T19:37:17.633Z,12.20
2024-04-25T19:39:50.548Z,12.50
2024-04-25T19:42:22.452Z,11.55
2024-04-25T19:44:52.776Z,11.80
2024-04-25T19:47:26.151Z,10.57
2024-04-25T19:49:56.548Z,12.23
2024-04-25T19:52:27.124Z,10.82
2024-04-25T19:54:57.823Z,13.45
2024-04-25T19:57:29.222Z,10.23
2024-04-25T20:00:01.923Z,11.10
2024-04-25T20:05:07.388Z,14.23
2024-04-25T20:07:37.789Z,13.40
2024-04-25T20:10:08.787Z,12.90
2024-04-25T20:12:39.437Z,12.52
2024-04-25T20:15:10.191Z,10.82
2024-04-25T20:17:59.388Z,14.13
2024-04-25T20:20:46.109Z,11.68
2024-04-25T20:23:16.387Z,11.30
2024-04-25T20:25:46.738Z,11.52
2024-04-25T20:28:17.105Z,13.80
2024-04-25T20:30:47.477Z,12.93
2024-04-25T20:33:20.971Z,11.18
2024-04-25T20:35:51.424Z,11.25
2024-04-25T20:38:21.899Z,11.18
2024-04-25T20:40:54.066Z,12.07
2024-04-25T20:43:24.356Z,11.38
2024-04-25T20:45:54.679Z,12.60
2024-04-25T20:48:28.634Z,11.15
2024-04-25T20:50:59.262Z,12.20
2024-04-25T20:53:29.610Z,13.77
2024-04-25T20:56:04.592Z,16.10
2024-04-25T20:58:34.968Z,12.98
2024-04-25T21:01:05.387Z,13.23
2024-04-25T21:03:38.470Z,13.68
2024-04-25T21:06:09.539Z,12.00
2024-04-25T21:08:40.023Z,12.88
2024-04-25T21:11:11.782Z,10.60
2024-04-25T21:13:42.102Z,12.57
2024-04-25T21:16:15.669Z,11.25
2024-04-25T21:18:49.391Z,12.93
2024-04-25T21:21:20.000Z,11.55
2024-04-25T21:23:50.400Z,12.23
2024-04-25T21:26:20.887Z,10.10
2024-04-25T21:28:51.227Z,12.75
2024-04-25T21:31:21.525Z,10.70
2024-04-25T21:33:54.755Z,10.68
2024-04-25T21:36:25.115Z,11.02
2024-04-25T21:38:55.795Z,10.82
2024-04-25T21:41:26.259Z,12.45
2024-04-25T21:43:58.981Z,13.10
2024-04-25T21:49:03.267Z,12.07
2024-04-25T21:51:33.896Z,11.45
2024-04-25T21:54:04.315Z,11.13
2024-04-25T21:56:34.685Z,10.23
2024-04-25T21:59:05.259Z,13.75
2024-04-25T22:01:35.697Z,9.88
2024-04-25T22:04:08.998Z,10.07
2024-04-25T22:06:39.407Z,11.70
2024-04-25T22:09:09.659Z,10.38
2024-04-25T22:11:41.015Z,12.73
2024-04-25T22:14:12.290Z,13.07
2024-04-25T22:16:42.935Z,11.45
2024-04-25T22:19:16.016Z,11.05
2024-04-25T22:21:51.919Z,12.07
2024-04-25T22:24:24.667Z,13.05
2024-04-25T22:26:56.580Z,13.63
2024-04-25T22:29:27.100Z,12.43
2024-04-25T22:31:58.422Z,12.27
2024-04-25T22:34:31.472Z,14.52
2024-04-25T22:37:02.901Z,14.18
2024-04-25T22:39:35.291Z,15.27
2024-04-25T22:42:05.714Z,12.57
2024-04-25T22:44:35.576Z,11.90
2024-04-25T22:47:07.431Z,13.13
2024-04-25T22:49:40.744Z,12.55
2024-04-25T22:52:11.142Z,12.35
2024-04-25T22:54:41.479Z,12.93
2024-04-25T22:57:11.797Z,13.85
2024-04-25T22:59:42.231Z,12.00
2024-04-25T23:02:12.607Z,13.80
2024-04-25T23:04:45.641Z,14.25
2024-04-25T23:07:16.038Z,12.30
2024-04-25T23:09:49.145Z,13.38
2024-04-25T23:12:19.952Z,13.57
2024-04-25T23:14:50.383Z,14.07
2024-04-25T23:17:20.951Z,14.88
2024-04-25T23:19:53.962Z,14.15
2024-04-25T23:22:24.262Z,13.00
2024-04-25T23:24:59.312Z,12.93
2024-04-25T23:27:29.743Z,14.40
2024-04-25T23:30:00.434Z,13.02
2024-04-25T23:32:30.989Z,12.68
2024-04-25T23:35:04.705Z,12.10
2024-04-25T23:37:35.076Z,13.50
2024-04-25T23:40:06.561Z,14.60
2024-04-25T23:42:37.729Z,14.65
2024-04-25T23:45:08.899Z,12.60
2024-04-25T23:47:39.335Z,12.75
2024-04-25T23:50:13.187Z,16.00
2024-04-25T23:52:43.505Z,15.23
2024-04-25T23:55:13.922Z,13.70
2024-04-25T23:57:41.614Z,15.98
